createdAt,value
2023-09-09T04:00:58.013Z,100634.75
2023-09-09T04:03:26.364Z,100638.55
2023-09-09T04:05:54.578Z,100637.79
2023-09-09T04:08:21.866Z,100635.99
2023-09-09T04:10:49.455Z,100629.22
2023-09-09T04:13:41.334Z,100633.05
2023-09-09T04:16:09.780Z,100630.64
2023-09-09T04:18:46.312Z,100627.87
2023-09-09T04:21:21.999Z,100629.84
2023-09-09T04:23:49.351Z,100633.52
2023-09-09T04:26:19.181Z,100628.64
2023-09-09T04:28:46.928Z,100632.83
2023-09-09T04:31:14.723Z,100631.90
2023-09-09T04:33:43.689Z,100633.68
2023-09-09T04:36:11.836Z,100637.96
2023-09-09T04:38:42.608Z,100638.45
2023-09-09T04:41:11.189Z,100638.77
2023-09-09T04:43:38.987Z,100637.48
2023-09-09T04:46:07.899Z,100640.59
2023-09-09T04:48:35.810Z,100645.36
2023-09-09T04:51:03.693Z,100644.71
2023-09-09T04:53:31.635Z,100648.66
2023-09-09T04:56:01.032Z,100644.92
2023-09-09T04:58:29.003Z,100644.23
2023-09-09T05:00:56.473Z,100648.27
2023-09-09T05:03:24.165Z,100648.59
2023-09-09T05:05:51.356Z,100650.70
2023-09-09T05:08:21.305Z,100648.10
2023-09-09T05:10:49.266Z,100648.92
2023-09-09T05:13:16.833Z,100649.06
2023-09-09T05:15:43.932Z,100650.23
2023-09-09T05:18:11.540Z,100655.59
2023-09-09T05:20:38.797Z,100657.58
2023-09-09T05:23:08.913Z,100658.98
2023-09-09T05:25:36.261Z,100651.26
2023-09-09T05:28:04.551Z,100657.09
2023-09-09T05:30:32.023Z,100660.32
2023-09-09T05:32:59.169Z,100657.16
2023-09-09T05:35:28.447Z,100656.61
2023-09-09T05:37:55.546Z,100657.30
2023-09-09T05:40:23.069Z,100658.22
2023-09-09T05:42:50.402Z,100659.44
2023-09-09T05:45:17.658Z,100656.65
2023-09-09T05:47:45.954Z,100656.65
2023-09-09T05:50:13.404Z,100658.30
2023-09-09T05:52:41.694Z,100660.56
2023-09-09T05:55:10.995Z,100663.23
2023-09-09T05:57:40.307Z,100666.37
2023-09-09T06:00:10.281Z,100666.58
2023-09-09T06:02:46.632Z,100668.58
2023-09-09T06:05:16.060Z,100675.52
2023-09-09T06:07:46.537Z,100672.70
2023-09-09T06:10:14.861Z,100672.46
2023-09-09T06:12:43.202Z,100677.05
2023-09-09T06:15:11.223Z,100675.44
2023-09-09T06:17:41.203Z,100676.09
2023-09-09T06:20:10.637Z,100679.48
2023-09-09T06:22:38.520Z,100676.96
2023-09-09T06:25:09.680Z,100671.43
2023-09-09T06:27:38.731Z,100667.98
2023-09-09T06:30:07.893Z,100672.66
2023-09-09T06:32:36.661Z,100673.02
2023-09-09T06:35:06.294Z,100671.59
2023-09-09T06:37:34.013Z,100667.56
2023-09-09T06:40:01.711Z,100671.06
2023-09-09T06:42:30.537Z,100671.48
2023-09-09T06:45:04.608Z,100672.77
2023-09-09T06:47:33.946Z,100675.30
2023-09-09T06:50:01.653Z,100675.69
2023-09-09T06:52:28.979Z,100675.33
2023-09-09T06:54:56.331Z,100678.96
2023-09-09T06:57:23.789Z,100679.17
2023-09-09T06:59:51.564Z,100682.67
2023-09-09T07:02:19.971Z,100683.13
2023-09-09T07:04:48.346Z,100678.36
2023-09-09T07:07:17.390Z,100677.48
2023-09-09T07:09:46.717Z,100679.88
2023-09-09T07:12:14.016Z,100683.44
2023-09-09T07:14:42.286Z,100685.38
2023-09-09T07:17:10.646Z,100685.09
2023-09-09T07:19:38.069Z,100687.77
2023-09-09T07:22:06.493Z,100684.45
2023-09-09T07:24:34.345Z,100687.95
2023-09-09T07:27:05.158Z,100683.39
2023-09-09T07:29:32.667Z,100689.69
2023-09-09T07:32:00.631Z,100685.16
2023-09-09T07:34:28.250Z,100685.18
2023-09-09T07:36:55.108Z,100687.79
2023-09-09T07:39:22.747Z,100690.17
2023-09-09T07:41:49.690Z,100687.92
2023-09-09T07:44:16.763Z,100688.37
2023-09-09T07:46:44.120Z,100692.27
2023-09-09T07:49:12.284Z,100691.51
2023-09-09T07:51:39.925Z,100696.55
2023-09-09T07:54:07.301Z,100697.77
2023-09-09T07:56:34.248Z,100699.98
2023-09-09T07:59:01.446Z,100701.34
2023-09-09T08:01:29.738Z,100702.13
2023-09-09T08:03:57.200Z,100701.72
2023-09-09T08:06:24.592Z,100699.13
2023-09-09T08:08:51.931Z,100697.23
2023-09-09T08:11:19.176Z,100699.70
2023-09-09T08:13:46.291Z,100693.61
2023-09-09T08:16:13.574Z,100695.41
2023-09-09T08:18:41.010Z,100693.10
2023-09-09T08:21:09.829Z,100689.35
2023-09-09T08:23:37.773Z,100686.80
2023-09-09T08:26:05.235Z,100690.05
2023-09-09T08:28:32.910Z,100685.46
2023-09-09T08:31:01.276Z,100681.52
2023-09-09T08:33:28.651Z,100679.59
2023-09-09T08:36:00.207Z,100675.55
2023-09-09T08:38:27.855Z,100678.65
2023-09-09T08:41:17.296Z,100683.85
2023-09-09T08:44:03.948Z,100685.67
2023-09-09T08:46:31.294Z,100683.08
2023-09-09T08:48:59.006Z,100680.92
2023-09-09T08:51:32.056Z,100676.21
2023-09-09T08:53:59.726Z,100672.41
2023-09-09T08:56:27.284Z,100672.55
2023-09-09T08:58:54.428Z,100669.27
2023-09-09T09:01:23.151Z,100664.09
2023-09-09T09:03:51.706Z,100661.93
2023-09-09T09:06:20.082Z,100664.35
2023-09-09T09:08:49.376Z,100664.73
2023-09-09T09:11:19.597Z,100661.86
2023-09-09T09:13:47.892Z,100661.93
2023-09-09T09:16:15.370Z,100656.80
2023-09-09T09:21:10.703Z,100659.67
2023-09-09T09:23:45.626Z,100656.80
2023-09-09T09:26:30.231Z,100654.57
2023-09-09T09:29:02.597Z,100658.45
2023-09-09T09:31:29.893Z,100658.02
2023-09-09T09:33:59.021Z,100654.36
2023-09-09T09:36:26.631Z,100656.17
2023-09-09T09:38:54.384Z,100654.48
2023-09-09T09:41:23.072Z,100644.84
2023-09-09T09:43:51.491Z,100649.11
2023-09-09T09:46:22.763Z,100651.15
2023-09-09T09:48:50.366Z,100652.08
2023-09-09T09:51:17.754Z,100648.02
2023-09-09T09:53:48.036Z,100649.01
2023-09-09T09:56:15.913Z,100650.44
2023-09-09T09:58:45.540Z,100653.38
2023-09-09T10:01:13.378Z,100654.98
2023-09-09T10:04:05.989Z,100653.27
2023-09-09T10:06:35.024Z,100643.94
2023-09-09T10:09:15.084Z,100643.69
2023-09-09T10:11:54.935Z,100641.45
2023-09-09T10:14:25.974Z,100641.80
2023-09-09T10:16:57.062Z,100638.60
2023-09-09T10:19:25.934Z,100635.90
2023-09-09T10:21:55.829Z,100630.23
2023-09-09T10:24:23.274Z,100624.77
2023-09-09T10:26:51.338Z,100623.80
2023-09-09T10:29:21.453Z,100621.95
2023-09-09T10:31:53.181Z,100622.67
2023-09-09T10:34:23.097Z,100623.27
2023-09-09T10:39:27.386Z,100619.74
2023-09-09T10:41:56.868Z,100620.06
2023-09-09T10:44:24.431Z,100620.60
2023-09-09T10:46:59.226Z,100618.67
2023-09-09T10:49:33.206Z,100618.48
2023-09-09T10:52:00.534Z,100613.89
2023-09-09T10:54:27.786Z,100607.64
2023-09-09T10:57:00.897Z,100612.32
2023-09-09T10:59:30.388Z,100609.07
2023-09-09T11:02:15.027Z,100610.02
2023-09-09T11:04:43.319Z,100613.77
2023-09-09T11:07:13.854Z,100611.36
2023-09-09T11:09:50.963Z,100612.80
2023-09-09T11:12:27.100Z,100614.13
2023-09-09T11:15:09.419Z,100599.21
2023-09-09T11:17:40.209Z,100597.59
2023-09-09T11:20:12.172Z,100605.09
2023-09-09T11:22:41.308Z,100605.92
2023-09-09T11:25:09.063Z,100602.33
2023-09-09T11:27:37.034Z,100600.39
2023-09-09T11:30:05.338Z,100599.23
2023-09-09T11:32:33.024Z,100602.57
2023-09-09T11:35:00.013Z,100604.02
2023-09-09T11:37:29.648Z,100600.64
2023-09-09T11:39:58.318Z,100601.60
2023-09-09T11:42:25.351Z,100601.09
2023-09-09T11:44:52.230Z,100599.89
2023-09-09T11:47:19.561Z,100597.44
2023-09-09T11:49:49.056Z,100592.21
2023-09-09T11:52:21.211Z,100588.68
2023-09-09T11:54:50.020Z,100589.05
2023-09-09T11:57:17.941Z,100590.70
2023-09-09T11:59:46.826Z,100590.39
2023-09-09T12:02:25.306Z,100590.77
2023-09-09T12:04:57.385Z,100586.94
2023-09-09T12:07:29.912Z,100583.08
2023-09-09T12:09:59.767Z,100582.14
2023-09-09T12:12:27.942Z,100584.21
2023-09-09T12:14:57.674Z,100579.90
2023-09-09T12:17:25.640Z,100578.48
2023-09-09T12:19:57.408Z,100576.05
2023-09-09T12:22:49.118Z,100574.70
2023-09-09T12:25:35.978Z,100570.91
2023-09-09T12:28:04.674Z,100567.29
2023-09-09T12:30:35.157Z,100562.58
2023-09-09T12:33:12.722Z,100561.13
2023-09-09T12:35:44.053Z,100559.80
2023-09-09T12:38:13.174Z,100555.61
2023-09-09T12:40:54.846Z,100553.89
2023-09-09T12:43:27.112Z,100550.81
2023-09-09T12:45:57.468Z,100555.81
2023-09-09T12:48:24.999Z,100553.11
2023-09-09T12:50:52.255Z,100551.48
2023-09-09T12:53:20.434Z,100547.95
2023-09-09T12:55:49.230Z,100545.48
2023-09-09T12:58:17.139Z,100536.80
2023-09-09T13:00:44.567Z,100540.32
2023-09-09T13:03:13.954Z,100539.05
2023-09-09T13:05:41.934Z,100539.11
2023-09-09T13:08:09.285Z,100537.66
2023-09-09T13:10:36.544Z,100539.58
2023-09-09T13:13:04.183Z,100538.76
2023-09-09T13:15:32.180Z,100531.88
2023-09-09T13:17:59.907Z,100532.61
2023-09-09T13:20:27.364Z,100533.68
2023-09-09T13:22:54.745Z,100528.90
2023-09-09T13:25:22.778Z,100527.98
2023-09-09T13:27:50.263Z,100528.17
2023-09-09T13:30:18.118Z,100526.98
2023-09-09T13:32:45.899Z,100516.80
2023-09-09T13:35:13.763Z,100526.50
2023-09-09T13:37:40.892Z,100528.22
2023-09-09T13:40:09.000Z,100528.45
2023-09-09T13:42:36.520Z,100529.69
2023-09-09T13:47:35.243Z,100526.20
2023-09-09T13:50:04.253Z,100523.95
2023-09-09T13:52:32.503Z,100525.41
2023-09-09T13:55:00.362Z,100520.84
2023-09-09T13:57:28.125Z,100518.14
2023-09-09T13:59:57.323Z,100517.79
2023-09-09T14:02:26.513Z,100517.41
2023-09-09T14:04:53.980Z,100514.97
2023-09-09T14:07:22.375Z,100508.73
2023-09-09T14:09:51.365Z,100509.52
2023-09-09T14:12:19.828Z,100506.05
2023-09-09T14:14:47.693Z,100498.98
2023-09-09T14:17:14.851Z,100499.45
2023-09-09T14:19:42.613Z,100492.85
2023-09-09T14:22:09.875Z,100489.14
2023-09-09T14:24:37.430Z,100487.58
2023-09-09T14:27:04.886Z,100483.36
2023-09-09T14:29:31.931Z,100484.95
2023-09-09T14:31:59.046Z,100484.88
2023-09-09T14:34:26.296Z,100482.42
2023-09-09T14:36:53.820Z,100481.80
2023-09-09T14:39:20.888Z,100482.55
2023-09-09T14:41:47.802Z,100483.16
2023-09-09T14:44:14.986Z,100482.34
2023-09-09T14:46:42.051Z,100481.27
2023-09-09T14:49:09.280Z,100480.92
2023-09-09T14:51:36.819Z,100481.90
2023-09-09T14:54:06.336Z,100480.96
2023-09-09T14:56:33.563Z,100481.95
2023-09-09T14:59:00.700Z,100481.68
2023-09-09T15:01:28.247Z,100482.61
2023-09-09T15:03:56.144Z,100480.52
2023-09-09T15:06:23.187Z,100473.48
2023-09-09T15:08:51.143Z,100477.19
2023-09-09T15:11:18.419Z,100475.70
2023-09-09T15:13:47.021Z,100473.48
2023-09-09T15:16:19.880Z,100471.87
2023-09-09T15:18:47.497Z,100471.85
2023-09-09T15:21:15.014Z,100467.52
2023-09-09T15:23:42.570Z,100466.63
2023-09-09T15:26:10.616Z,100464.19
2023-09-09T15:28:37.955Z,100463.49
2023-09-09T15:31:06.373Z,100465.73
2023-09-09T15:33:33.613Z,100463.11
2023-09-09T15:36:02.162Z,100464.48
2023-09-09T15:38:29.670Z,100465.28
2023-09-09T15:40:57.509Z,100464.42
2023-09-09T15:43:27.708Z,100464.46
2023-09-09T15:46:03.356Z,100465.83
2023-09-09T15:48:32.176Z,100460.69
2023-09-09T15:51:03.664Z,100463.20
2023-09-09T15:53:31.604Z,100462.58
2023-09-09T15:56:03.661Z,100461.77
2023-09-09T15:58:30.799Z,100460.84
2023-09-09T16:01:00.750Z,100458.34
2023-09-09T16:03:28.900Z,100456.45
2023-09-09T16:06:07.737Z,100457.46
2023-09-09T16:08:38.958Z,100458.17
2023-09-09T16:11:09.928Z,100456.24
2023-09-09T16:13:38.684Z,100457.09
2023-09-09T16:16:09.662Z,100454.55
2023-09-09T16:18:42.738Z,100456.50
2023-09-09T16:21:11.308Z,100454.82
2023-09-09T16:23:39.238Z,100456.94
2023-09-09T16:26:06.656Z,100456.41
2023-09-09T16:28:34.821Z,100454.70
2023-09-09T16:31:06.133Z,100452.00
2023-09-09T16:33:33.967Z,100453.77
2023-09-09T16:36:05.795Z,100453.16
2023-09-09T16:38:33.810Z,100457.81
2023-09-09T16:41:01.318Z,100462.17
2023-09-09T16:43:28.865Z,100458.95
2023-09-09T16:45:57.421Z,100458.31
2023-09-09T16:48:26.858Z,100453.69
2023-09-09T16:50:55.513Z,100454.19
2023-09-09T16:53:26.241Z,100456.60
2023-09-09T16:55:55.787Z,100453.56
2023-09-09T16:58:24.670Z,100456.34
2023-09-09T17:00:53.724Z,100456.16
2023-09-09T17:03:21.496Z,100457.56
2023-09-09T17:05:50.207Z,100458.34
2023-09-09T17:08:17.456Z,100458.81
2023-09-09T17:10:50.380Z,100457.65
2023-09-09T17:13:18.660Z,100457.46
2023-09-09T17:15:45.994Z,100459.47
2023-09-09T17:18:13.873Z,100465.16
2023-09-09T17:20:42.031Z,100463.88
2023-09-09T17:23:09.336Z,100463.85
2023-09-09T17:25:36.477Z,100468.13
2023-09-09T17:28:05.150Z,100468.33
2023-09-09T17:30:32.159Z,100472.57
2023-09-09T17:32:59.325Z,100473.32
2023-09-09T17:35:28.251Z,100469.44
2023-09-09T17:37:55.886Z,100474.85
2023-09-09T17:40:23.341Z,100473.02
2023-09-09T17:42:51.074Z,100477.25
2023-09-09T17:45:19.766Z,100480.66
2023-09-09T17:47:46.999Z,100480.16
2023-09-09T17:50:14.892Z,100481.84
2023-09-09T17:52:43.062Z,100486.11
2023-09-09T17:55:11.961Z,100484.27
2023-09-09T17:57:40.235Z,100485.31
2023-09-09T18:00:09.070Z,100483.52
2023-09-09T18:02:36.877Z,100484.34
2023-09-09T18:05:05.457Z,100489.12
2023-09-09T18:07:32.739Z,100494.80
2023-09-09T18:09:59.874Z,100492.39
2023-09-09T18:12:27.221Z,100492.42
2023-09-09T18:14:54.293Z,100492.68
2023-09-09T18:17:21.581Z,100495.55
2023-09-09T18:19:49.055Z,100494.36
2023-09-09T18:22:16.541Z,100495.55
2023-09-09T18:24:44.409Z,100498.27
2023-09-09T18:27:11.551Z,100498.02
2023-09-09T18:29:38.839Z,100497.68
2023-09-09T18:32:20.165Z,100499.84
2023-09-09T18:34:48.431Z,100496.98
2023-09-09T18:37:15.842Z,100500.34
2023-09-09T18:39:43.043Z,100499.05
2023-09-09T18:42:10.193Z,100503.60
2023-09-09T18:44:37.582Z,100504.95
2023-09-09T18:47:04.936Z,100502.90
2023-09-09T18:52:00.526Z,100503.43
2023-09-09T18:54:28.237Z,100503.88
2023-09-09T18:56:55.447Z,100502.20
2023-09-09T18:59:23.000Z,100505.84
2023-09-09T19:01:52.540Z,100509.66
2023-09-09T19:04:21.440Z,100512.73
2023-09-09T19:06:49.365Z,100511.42
2023-09-09T19:09:16.830Z,100511.17
2023-09-09T19:11:44.091Z,100512.65
2023-09-09T19:14:11.550Z,100514.34
2023-09-09T19:16:39.210Z,100516.71
2023-09-09T19:19:06.661Z,100511.35
2023-09-09T19:21:33.926Z,100517.40
2023-09-09T19:24:01.985Z,100515.80
2023-09-09T19:26:29.973Z,100514.69
2023-09-09T19:28:57.678Z,100518.57
2023-09-09T19:31:27.181Z,100519.41
2023-09-09T19:33:54.795Z,100516.92
2023-09-09T19:36:22.356Z,100521.23
2023-09-09T19:38:50.941Z,100521.39
2023-09-09T19:41:18.915Z,100521.96
2023-09-09T19:43:46.503Z,100520.73
2023-09-09T19:46:14.554Z,100521.13
2023-09-09T19:48:42.209Z,100520.61
2023-09-09T19:51:09.656Z,100515.56
2023-09-09T19:53:36.985Z,100516.23
2023-09-09T19:56:05.405Z,100514.09
2023-09-09T19:58:33.287Z,100513.85
2023-09-09T20:01:00.452Z,100515.25
2023-09-09T20:03:27.910Z,100514.42
2023-09-09T20:05:55.478Z,100512.65
2023-09-09T20:08:23.004Z,100511.11
2023-09-09T20:10:54.827Z,100516.24
2023-09-09T20:13:24.420Z,100515.82
2023-09-09T20:15:54.318Z,100522.75
2023-09-09T20:18:22.728Z,100524.02
2023-09-09T20:20:50.709Z,100525.50
2023-09-09T20:23:18.674Z,100527.45
2023-09-09T20:25:46.758Z,100530.92
2023-09-09T20:28:14.108Z,100534.51
2023-09-09T20:30:41.506Z,100534.10
2023-09-09T20:33:09.379Z,100530.89
2023-09-09T20:35:40.220Z,100532.54
2023-09-09T20:38:09.262Z,100532.86
2023-09-09T20:40:38.013Z,100529.21
2023-09-09T20:43:05.822Z,100524.33
2023-09-09T20:45:33.468Z,100521.92
2023-09-09T20:48:01.019Z,100524.02
2023-09-09T20:50:33.415Z,100522.84
2023-09-09T20:53:01.921Z,100526.77
2023-09-09T20:55:33.178Z,100528.58
2023-09-09T20:58:01.013Z,100526.13
2023-09-09T21:00:28.665Z,100528.48
2023-09-09T21:02:56.224Z,100527.16
2023-09-09T21:05:23.824Z,100527.48
2023-09-09T21:07:52.009Z,100525.60
2023-09-09T21:10:19.421Z,100524.34
2023-09-09T21:12:48.235Z,100524.80
2023-09-09T21:15:16.732Z,100525.39
2023-09-09T21:17:44.898Z,100525.61
2023-09-09T21:20:13.032Z,100519.25
2023-09-09T21:22:40.831Z,100520.50
2023-09-09T21:25:11.649Z,100516.00
2023-09-09T21:27:39.221Z,100512.93
2023-09-09T21:30:08.298Z,100514.77
2023-09-09T21:32:38.424Z,100513.94
2023-09-09T21:35:09.285Z,100511.23
2023-09-09T21:37:39.559Z,100508.70
2023-09-09T21:40:10.339Z,100508.52
2023-09-09T21:42:40.945Z,100508.85
2023-09-09T21:45:11.530Z,100508.27
2023-09-09T21:47:42.593Z,100510.77
2023-09-09T21:50:15.215Z,100508.42
2023-09-09T21:52:48.554Z,100507.80
2023-09-09T21:55:18.803Z,100506.04
2023-09-09T21:57:47.841Z,100504.62
2023-09-09T22:00:20.917Z,100502.90
2023-09-09T22:02:52.557Z,100502.97
2023-09-09T22:05:22.429Z,100500.81
2023-09-09T22:07:52.643Z,100502.25
2023-09-09T22:10:23.125Z,100502.77
2023-09-09T22:12:56.879Z,100499.31
2023-09-09T22:15:26.087Z,100496.52
2023-09-09T22:17:55.606Z,100498.70
2023-09-09T22:20:26.455Z,100497.56
2023-09-09T22:22:56.368Z,100505.53
2023-09-09T22:25:26.725Z,100502.52
2023-09-09T22:27:57.587Z,100502.17
2023-09-09T22:32:53.312Z,100505.34
2023-09-09T22:35:28.404Z,100505.48
2023-09-09T22:37:57.048Z,100503.64
2023-09-09T22:40:24.253Z,100506.89
2023-09-09T22:42:51.077Z,100501.70
2023-09-09T22:45:20.776Z,100505.30
2023-09-09T22:47:47.749Z,100501.73
2023-09-09T22:50:16.009Z,100506.00
2023-09-09T22:52:43.190Z,100506.89
2023-09-09T22:55:11.921Z,100507.46
2023-09-09T22:57:39.205Z,100505.53
